Time;durP1;ratioP1;P1;durP2;ratioP2;P2;SDS_P1;SDS_P2;PMS_P1;PMS_P2;Temp;Humidity;BMP_temperature;BMP_pressure;BME280_temperature;BME280_humidity;BME280_pressure;Samples;Min_cycle;Max_cycle;Signal;HPM_P1;HPM_P2
2023/10/02 00:05:05;;;;;;;10.73;5.03;;;;;;;;;;5024585;28;20037;-38
2023/10/02 00:07:34;;;;;;;11.43;5.05;;;;;;;;;;5027419;28;20056;-37
2023/10/02 00:10:02;;;;;;;13.40;5.35;;;;;;;;;;5025205;28;20037;-38
2023/10/02 00:12:31;;;;;;;11.70;5.13;;;;;;;;;;5029829;28;20060;-38
2023/10/02 00:15:12;;;;;;;12.70;5.07;;;;;;;;;;5016069;28;20095;-37
2023/10/02 00:17:43;;;;;;;15.52;5.43;;;;;;;;;;5024586;28;20142;-38
2023/10/02 00:20:21;;;;;;;14.07;4.88;;;;;;;;;;5020229;28;20064;-38
2023/10/02 00:22:50;;;;;;;12.85;5.28;;;;;;;;;;5025339;28;20136;-37
2023/10/02 00:25:22;;;;;;;11.83;5.20;;;;;;;;;;5020902;28;20121;-37
2023/10/02 00:27:51;;;;;;;13.45;4.85;;;;;;;;;;5032525;28;20068;-37
2023/10/02 00:30:23;;;;;;;14.10;5.22;;;;;;;;;;5018746;28;20093;-40
2023/10/02 00:32:51;;;;;;;14.73;5.63;;;;;;;;;;5031415;28;20041;-38
2023/10/02 00:35:22;;;;;;;13.70;4.72;;;;;;;;;;5022480;28;20036;-37
2023/10/02 00:37:51;;;;;;;26.40;6.10;;;;;;;;;;5020745;28;20087;-37
2023/10/02 00:40:23;;;;;;;13.40;5.50;;;;;;;;;;5025963;28;20120;-37
2023/10/02 00:42:54;;;;;;;11.73;5.90;;;;;;;;;;5020219;28;20112;-37
2023/10/02 00:45:29;;;;;;;15.10;5.63;;;;;;;;;;5024442;28;20108;-37
2023/10/02 00:48:24;;;;;;;16.58;6.00;;;;;;;;;;5027776;28;20041;-37
2023/10/02 00:50:49;;;;;;;16.03;5.50;;;;;;;;;;5013339;28;20657;-37
2023/10/02 00:53:30;;;;;;;13.80;5.82;;;;;;;;;;5026443;28;20683;-37
2023/10/02 00:56:03;;;;;;;14.82;6.15;;;;;;;;;;5028417;28;20037;-37
2023/10/02 00:58:32;;;;;;;12.65;5.57;;;;;;;;;;5024207;28;20508;-37
2023/10/02 01:01:03;;;;;;;14.70;5.30;;;;;;;;;;5029835;28;20525;-37
2023/10/02 01:04:06;;;;;;;14.13;5.00;;;;;;;;;;5016854;28;20110;-37
2023/10/02 01:06:21;;;;;;;15.68;5.20;;;;;;;;;;5023775;28;20041;-38
2023/10/02 01:08:50;;;;;;;14.77;4.80;;;;;;;;;;5028011;28;20041;-38
2023/10/02 01:11:20;;;;;;;11.25;4.40;;;;;;;;;;5024075;28;20106;-37
2023/10/02 01:13:48;;;;;;;9.40;3.35;;;;;;;;;;5018437;28;20068;-37
2023/10/02 01:16:20;;;;;;;9.50;3.73;;;;;;;;;;5022437;28;20104;-37
2023/10/02 01:18:50;;;;;;;7.55;2.95;;;;;;;;;;5025142;28;20052;-37
2023/10/02 01:21:24;;;;;;;7.05;2.33;;;;;;;;;;5025957;28;20499;-37
2023/10/02 01:26:37;;;;;;;7.85;3.22;;;;;;;;;;5022817;28;20045;-37
2023/10/02 01:29:06;;;;;;;6.93;2.97;;;;;;;;;;5056225;28;20491;-37
2023/10/02 01:31:41;;;;;;;7.88;2.80;;;;;;;;;;5022905;28;20457;-38
2023/10/02 01:34:25;;;;;;;6.60;2.35;;;;;;;;;;4964796;28;20413;-37
2023/10/02 01:36:53;;;;;;;7.88;2.47;;;;;;;;;;5006256;28;20116;-37
2023/10/02 01:39:23;;;;;;;6.55;2.25;;;;;;;;;;5013388;28;20048;-38
2023/10/02 01:41:52;;;;;;;7.20;2.30;;;;;;;;;;4944174;28;20049;-37
2023/10/02 01:44:22;;;;;;;10.15;2.80;;;;;;;;;;5021096;28;20061;-38
2023/10/02 01:46:52;;;;;;;9.00;2.90;;;;;;;;;;5024848;28;20048;-37
2023/10/02 01:49:27;;;;;;;8.40;2.85;;;;;;;;;;4999947;28;20496;-38
2023/10/02 01:51:58;;;;;;;6.97;2.03;;;;;;;;;;5027994;28;20041;-38
2023/10/02 01:54:27;;;;;;;7.57;2.43;;;;;;;;;;5025412;28;20041;-38
2023/10/02 01:56:55;;;;;;;7.82;2.10;;;;;;;;;;5026512;28;20091;-38
2023/10/02 01:59:24;;;;;;;8.55;2.58;;;;;;;;;;5030800;28;20040;-37
2023/10/02 02:01:56;;;;;;;10.00;3.08;;;;;;;;;;5024386;28;21036;-37
2023/10/02 02:04:28;;;;;;;6.78;2.53;;;;;;;;;;5034020;28;20048;-37
2023/10/02 02:06:58;;;;;;;8.90;2.40;;;;;;;;;;5028791;28;20068;-38
2023/10/02 02:09:30;;;;;;;7.38;2.38;;;;;;;;;;5026057;28;20533;-37
2023/10/02 02:12:06;;;;;;;11.70;2.80;;;;;;;;;;5029362;28;20141;-37
2023/10/02 02:14:40;;;;;;;8.88;3.60;;;;;;;;;;5026694;28;20087;-38
2023/10/02 02:17:11;;;;;;;7.60;2.95;;;;;;;;;;5017466;28;20052;-37
2023/10/02 02:19:47;;;;;;;8.60;3.17;;;;;;;;;;5027743;28;20037;-37
2023/10/02 02:22:17;;;;;;;8.57;2.78;;;;;;;;;;5018187;28;20106;-37
2023/10/02 02:24:47;;;;;;;8.70;2.50;;;;;;;;;;5030624;28;20033;-38
2023/10/02 02:27:17;;;;;;;7.70;2.50;;;;;;;;;;5021325;28;20116;-37
2023/10/02 02:29:46;;;;;;;8.48;2.72;;;;;;;;;;5031073;28;20119;-37
2023/10/02 02:32:17;;;;;;;9.73;3.20;;;;;;;;;;5017908;28;20044;-38
2023/10/02 02:34:45;;;;;;;8.48;3.20;;;;;;;;;;5025061;28;20042;-37
2023/10/02 02:37:13;;;;;;;10.43;2.78;;;;;;;;;;5021945;28;20037;-37
2023/10/02 02:39:43;;;;;;;10.77;3.33;;;;;;;;;;5029046;28;20079;-38
2023/10/02 02:42:22;;;;;;;9.05;3.70;;;;;;;;;;5024164;28;20538;-37
2023/10/02 02:44:52;;;;;;;8.73;2.70;;;;;;;;;;5026149;28;20041;-37
2023/10/02 02:47:21;;;;;;;8.95;3.10;;;;;;;;;;5024982;28;20041;-39
2023/10/02 02:49:51;;;;;;;10.05;3.15;;;;;;;;;;5056251;28;20131;-37
2023/10/02 02:52:20;;;;;;;9.77;2.95;;;;;;;;;;5026273;28;20119;-37
2023/10/02 02:54:48;;;;;;;8.90;3.05;;;;;;;;;;5021428;28;20041;-37
2023/10/02 02:57:25;;;;;;;9.80;2.80;;;;;;;;;;5029192;28;20037;-37
2023/10/02 03:00:24;;;;;;;10.75;3.50;;;;;;;;;;5021661;28;20042;-37
2023/10/02 03:02:44;;;;;;;10.02;3.70;;;;;;;;;;5022206;28;20577;-38
2023/10/02 03:05:12;;;;;;;12.73;3.50;;;;;;;;;;5032109;28;20033;-38
2023/10/02 03:07:42;;;;;;;12.85;3.97;;;;;;;;;;5027054;28;20280;-37
2023/10/02 03:10:11;;;;;;;11.13;3.70;;;;;;;;;;5025505;28;20122;-37
2023/10/02 03:12:45;;;;;;;15.38;5.18;;;;;;;;;;5006635;28;20033;-37
2023/10/02 03:15:14;;;;;;;13.90;3.95;;;;;;;;;;5022733;28;20045;-37
2023/10/02 03:17:48;;;;;;;11.95;4.65;;;;;;;;;;5026899;28;20718;-37
2023/10/02 03:20:23;;;;;;;13.27;4.32;;;;;;;;;;5026334;28;20432;-37
2023/10/02 03:22:54;;;;;;;13.63;4.37;;;;;;;;;;5020272;28;20404;-37
2023/10/02 03:25:27;;;;;;;19.05;5.05;;;;;;;;;;5027500;28;20055;-37
2023/10/02 03:27:59;;;;;;;16.25;5.10;;;;;;;;;;5024969;28;20047;-37
2023/10/02 03:30:38;;;;;;;13.82;4.63;;;;;;;;;;5025923;28;21034;-37
2023/10/02 03:33:17;;;;;;;12.75;4.28;;;;;;;;;;5024842;28;20033;-38
2023/10/02 03:35:56;;;;;;;16.03;5.37;;;;;;;;;;5021655;28;20116;-40
2023/10/02 03:38:29;;;;;;;17.67;5.45;;;;;;;;;;5027756;28;20242;-38
2023/10/02 03:40:57;;;;;;;20.33;5.88;;;;;;;;;;5027601;28;20126;-37
2023/10/02 03:43:42;;;;;;;19.90;6.75;;;;;;;;;;5022248;28;20496;-37
2023/10/02 03:46:15;;;;;;;24.75;7.32;;;;;;;;;;5031237;28;20068;-37
2023/10/02 03:48:51;;;;;;;23.27;7.77;;;;;;;;;;5029028;28;20056;-37
2023/10/02 03:51:36;;;;;;;27.27;7.78;;;;;;;;;;5016724;28;20068;-37
2023/10/02 03:54:17;;;;;;;31.27;8.75;;;;;;;;;;5030774;28;20484;-37
2023/10/02 03:56:47;;;;;;;31.38;8.82;;;;;;;;;;5018230;28;20396;-38
2023/10/02 03:59:20;;;;;;;32.10;8.30;;;;;;;;;;5027388;28;20091;-37
2023/10/02 04:01:51;;;;;;;26.80;8.00;;;;;;;;;;5031018;28;20064;-38
2023/10/02 04:04:24;;;;;;;26.05;8.13;;;;;;;;;;5024388;28;20071;-37
2023/10/02 04:06:53;;;;;;;24.30;8.23;;;;;;;;;;5029218;28;20052;-38
2023/10/02 04:09:23;;;;;;;25.85;7.93;;;;;;;;;;5025521;28;20072;-38
2023/10/02 04:11:52;;;;;;;19.70;6.10;;;;;;;;;;5026845;28;20048;-37
2023/10/02 04:14:31;;;;;;;18.17;5.23;;;;;;;;;;5018801;28;20037;-37
2023/10/02 04:17:09;;;;;;;15.55;5.03;;;;;;;;;;5025427;28;20049;-37
2023/10/02 04:19:40;;;;;;;15.90;4.88;;;;;;;;;;5030746;28;20048;-40
2023/10/02 04:22:16;;;;;;;15.63;5.15;;;;;;;;;;5023060;28;20051;-38
2023/10/02 04:24:51;;;;;;;18.95;5.80;;;;;;;;;;5034674;28;20049;-37
2023/10/02 04:27:25;;;;;;;16.10;5.97;;;;;;;;;;5022343;28;20045;-38
2023/10/02 04:32:59;;;;;;;15.20;4.80;;;;;;;;;;4996319;28;20049;-37
2023/10/02 04:35:44;;;;;;;18.60;5.65;;;;;;;;;;4984838;28;20049;-37
2023/10/02 04:38:14;;;;;;;22.80;6.18;;;;;;;;;;5019327;28;20090;-37
2023/10/02 04:40:49;;;;;;;19.27;5.97;;;;;;;;;;5026102;28;20621;-37
2023/10/02 04:43:23;;;;;;;18.17;5.95;;;;;;;;;;5022591;28;20479;-37
2023/10/02 04:45:53;;;;;;;22.17;6.68;;;;;;;;;;5064044;28;20041;-37
2023/10/02 04:48:26;;;;;;;23.63;7.03;;;;;;;;;;5025178;28;20063;-38
2023/10/02 04:50:56;;;;;;;21.02;6.07;;;;;;;;;;5020456;28;20048;-38
2023/10/02 04:53:25;;;;;;;23.73;6.90;;;;;;;;;;5020673;28;20483;-38
2023/10/02 04:58:47;;;;;;;18.70;6.65;;;;;;;;;;5027583;28;20144;-38
2023/10/02 05:01:34;;;;;;;22.08;6.10;;;;;;;;;;5020685;28;20126;-37
2023/10/02 05:04:03;;;;;;;19.33;6.00;;;;;;;;;;5024448;28;20041;-37
2023/10/02 05:06:44;;;;;;;20.37;5.83;;;;;;;;;;5025825;28;20106;-37
2023/10/02 05:09:19;;;;;;;21.30;6.05;;;;;;;;;;5025473;28;20063;-37
2023/10/02 05:11:52;;;;;;;22.30;6.18;;;;;;;;;;5029875;28;20052;-37
2023/10/02 05:14:26;;;;;;;22.73;5.85;;;;;;;;;;5020796;28;20521;-37
2023/10/02 05:17:16;;;;;;;25.40;6.65;;;;;;;;;;5016583;28;20041;-38
2023/10/02 05:22:33;;;;;;;23.52;7.22;;;;;;;;;;5011857;28;20067;-37
2023/10/02 05:25:04;;;;;;;25.65;6.93;;;;;;;;;;5022927;28;20056;-37
2023/10/02 05:27:33;;;;;;;22.17;6.88;;;;;;;;;;5020422;28;20096;-38
2023/10/02 05:30:05;;;;;;;24.90;7.38;;;;;;;;;;5022130;28;20120;-37
2023/10/02 05:32:35;;;;;;;23.00;6.80;;;;;;;;;;5025045;28;20041;-37
2023/10/02 05:35:16;;;;;;;23.38;7.28;;;;;;;;;;5019264;28;20124;-37
2023/10/02 05:37:45;;;;;;;28.08;7.13;;;;;;;;;;5022092;28;20047;-37
2023/10/02 05:43:17;;;;;;;29.33;7.90;;;;;;;;;;5016386;28;20041;-38
2023/10/02 05:45:50;;;;;;;31.53;7.73;;;;;;;;;;5016998;28;20037;-37
2023/10/02 05:48:31;;;;;;;29.27;7.40;;;;;;;;;;5022920;28;20064;-37
2023/10/02 05:50:59;;;;;;;33.75;8.27;;;;;;;;;;5027331;28;20121;-37
2023/10/02 05:53:29;;;;;;;25.58;7.03;;;;;;;;;;5021253;28;20048;-37
2023/10/02 05:56:12;;;;;;;27.30;7.03;;;;;;;;;;5027684;28;20060;-37
2023/10/02 05:58:42;;;;;;;28.23;7.73;;;;;;;;;;5028660;28;20041;-38
2023/10/02 06:01:23;;;;;;;27.58;7.75;;;;;;;;;;5014362;28;20088;-39
2023/10/02 06:03:57;;;;;;;30.17;8.15;;;;;;;;;;5024753;28;20052;-37
2023/10/02 06:06:27;;;;;;;29.92;7.65;;;;;;;;;;5021999;28;20475;-37
2023/10/02 06:09:00;;;;;;;27.30;8.00;;;;;;;;;;5025693;28;20041;-37
2023/10/02 06:11:33;;;;;;;26.10;7.17;;;;;;;;;;5018779;28;20102;-37
2023/10/02 06:14:11;;;;;;;29.17;7.55;;;;;;;;;;5014999;28;20463;-37
2023/10/02 06:16:40;;;;;;;28.73;7.28;;;;;;;;;;5024164;28;20051;-37
2023/10/02 06:19:14;;;;;;;30.85;8.02;;;;;;;;;;5019079;28;20041;-37
2023/10/02 06:24:27;;;;;;;33.23;8.33;;;;;;;;;;5017696;28;20049;-37
2023/10/02 06:26:57;;;;;;;27.10;8.05;;;;;;;;;;5019515;28;20560;-38
2023/10/02 06:29:28;;;;;;;35.05;8.95;;;;;;;;;;5026152;28;20045;-37
2023/10/02 06:32:02;;;;;;;35.80;8.07;;;;;;;;;;5019532;28;20045;-37
2023/10/02 06:34:37;;;;;;;36.53;8.73;;;;;;;;;;5027298;28;20048;-37
2023/10/02 06:37:08;;;;;;;30.17;8.00;;;;;;;;;;5020913;28;20048;-37
2023/10/02 06:39:36;;;;;;;34.30;8.82;;;;;;;;;;5025165;28;20049;-38
2023/10/02 06:42:05;;;;;;;31.13;8.07;;;;;;;;;;5011947;28;20406;-37
2023/10/02 06:44:37;;;;;;;36.22;8.68;;;;;;;;;;5022541;28;20040;-37
2023/10/02 06:47:11;;;;;;;31.45;8.35;;;;;;;;;;5018186;28;20051;-37
2023/10/02 06:49:43;;;;;;;31.07;7.93;;;;;;;;;;5019169;28;20509;-38
2023/10/02 06:52:15;;;;;;;29.10;7.53;;;;;;;;;;5029229;28;20068;-37
2023/10/02 06:54:44;;;;;;;27.73;7.47;;;;;;;;;;5018609;28;20817;-37
2023/10/02 06:57:13;;;;;;;26.05;7.00;;;;;;;;;;5015373;28;20084;-38
2023/10/02 06:59:51;;;;;;;23.23;8.02;;;;;;;;;;4992239;28;20133;-38
2023/10/02 07:02:20;;;;;;;27.60;7.00;;;;;;;;;;5021321;28;20056;-37
2023/10/02 07:04:49;;;;;;;25.42;6.57;;;;;;;;;;5021095;28;20037;-37
2023/10/02 07:07:21;;;;;;;24.77;7.28;;;;;;;;;;5015122;28;20075;-37
2023/10/02 07:09:49;;;;;;;24.00;6.55;;;;;;;;;;5017052;28;20041;-37
2023/10/02 07:12:18;;;;;;;22.85;6.18;;;;;;;;;;5024949;28;20463;-38
2023/10/02 07:14:45;;;;;;;22.37;5.90;;;;;;;;;;5023746;28;20269;-37
2023/10/02 07:17:16;;;;;;;24.20;6.55;;;;;;;;;;5021115;28;20381;-37
2023/10/02 07:19:49;;;;;;;25.20;6.45;;;;;;;;;;5014691;28;20047;-38
2023/10/02 07:22:18;;;;;;;20.25;5.13;;;;;;;;;;5002070;28;20029;-37
2023/10/02 07:24:47;;;;;;;18.23;5.00;;;;;;;;;;5018679;28;20029;-37
2023/10/02 07:27:26;;;;;;;22.50;5.00;;;;;;;;;;4999656;28;20037;-37
2023/10/02 07:29:55;;;;;;;21.15;5.70;;;;;;;;;;5020178;28;20040;-37
2023/10/02 07:32:23;;;;;;;21.00;5.97;;;;;;;;;;5016722;28;20051;-37
2023/10/02 07:34:53;;;;;;;21.60;6.00;;;;;;;;;;5023927;28;20048;-37
2023/10/02 07:37:22;;;;;;;16.92;5.05;;;;;;;;;;5020304;28;20045;-37
2023/10/02 07:39:56;;;;;;;22.63;5.97;;;;;;;;;;5016271;28;20084;-37
2023/10/02 07:42:24;;;;;;;16.90;4.95;;;;;;;;;;5022189;28;20091;-37
2023/10/02 07:44:52;;;;;;;15.82;4.50;;;;;;;;;;5021514;28;20059;-38
2023/10/02 07:47:21;;;;;;;16.98;5.13;;;;;;;;;;5020637;28;20037;-38
2023/10/02 07:49:51;;;;;;;17.90;4.68;;;;;;;;;;5022415;28;20095;-37
2023/10/02 07:52:38;;;;;;;19.77;5.17;;;;;;;;;;5028708;28;20155;-37
2023/10/02 07:55:10;;;;;;;17.30;4.73;;;;;;;;;;4677758;28;10000405;-38
2023/10/02 07:57:39;;;;;;;20.17;5.10;;;;;;;;;;5021819;28;20057;-38
2023/10/02 08:00:33;;;;;;;16.27;5.18;;;;;;;;;;5017341;28;20515;-37
2023/10/02 08:02:56;;;;;;;15.25;5.35;;;;;;;;;;5050920;28;20410;-38
2023/10/02 08:05:25;;;;;;;18.88;5.70;;;;;;;;;;5024201;28;20383;-37
2023/10/02 08:08:08;;;;;;;16.03;5.10;;;;;;;;;;5024354;28;20048;-37
2023/10/02 08:10:49;;;;;;;19.53;4.83;;;;;;;;;;4329565;28;10000680;-37
2023/10/02 08:13:17;;;;;;;15.57;4.47;;;;;;;;;;4957867;28;20053;-37
2023/10/02 08:15:45;;;;;;;17.13;4.70;;;;;;;;;;5021771;28;20033;-37
2023/10/02 08:18:17;;;;;;;14.65;5.57;;;;;;;;;;5001713;28;20073;-37
2023/10/02 08:20:45;;;;;;;18.67;5.40;;;;;;;;;;4995569;28;20682;-37
2023/10/02 08:23:24;;;;;;;18.80;5.13;;;;;;;;;;5001143;28;20044;-37
2023/10/02 08:26:02;;;;;;;15.48;4.95;;;;;;;;;;4995737;28;20053;-38
2023/10/02 08:28:34;;;;;;;15.30;5.20;;;;;;;;;;5005567;28;20438;-39
2023/10/02 08:31:02;;;;;;;18.08;5.15;;;;;;;;;;5002169;28;20561;-37
2023/10/02 08:33:31;;;;;;;17.35;5.53;;;;;;;;;;4996345;28;20052;-37
2023/10/02 08:36:19;;;;;;;17.53;4.83;;;;;;;;;;5009568;28;20044;-37
2023/10/02 08:38:49;;;;;;;16.55;4.50;;;;;;;;;;5008475;28;20044;-37
2023/10/02 08:41:20;;;;;;;13.63;3.60;;;;;;;;;;5000601;28;20045;-38
2023/10/02 08:43:47;;;;;;;14.95;4.25;;;;;;;;;;4993416;28;20049;-38
2023/10/02 08:46:21;;;;;;;13.43;3.92;;;;;;;;;;5007059;28;20049;-40
2023/10/02 08:48:54;;;;;;;12.07;3.57;;;;;;;;;;5007849;28;20140;-39
2023/10/02 08:51:29;;;;;;;16.35;4.53;;;;;;;;;;5004899;28;20045;-38
2023/10/02 08:53:59;;;;;;;17.05;4.70;;;;;;;;;;4999639;28;20041;-38
2023/10/02 08:56:40;;;;;;;16.58;4.15;;;;;;;;;;5001956;28;20042;-38
2023/10/02 08:59:17;;;;;;;16.90;4.50;;;;;;;;;;5013968;28;20044;-38
2023/10/02 09:01:48;;;;;;;19.63;4.90;;;;;;;;;;5002649;28;20072;-38
2023/10/02 09:04:28;;;;;;;15.43;4.85;;;;;;;;;;4998573;28;20140;-38
2023/10/02 09:06:59;;;;;;;17.67;4.80;;;;;;;;;;5003659;28;20051;-38
2023/10/02 09:09:36;;;;;;;19.45;4.85;;;;;;;;;;5009980;28;20063;-38
2023/10/02 09:12:08;;;;;;;16.10;4.63;;;;;;;;;;5001408;28;20044;-38
2023/10/02 09:14:40;;;;;;;17.70;4.63;;;;;;;;;;5004158;28;20052;-38
2023/10/02 09:17:16;;;;;;;20.67;5.28;;;;;;;;;;4981891;28;21489;-39
2023/10/02 09:19:53;;;;;;;17.67;5.18;;;;;;;;;;4986654;28;20041;-38
2023/10/02 09:22:23;;;;;;;17.88;4.22;;;;;;;;;;5001169;28;20608;-39
2023/10/02 09:25:12;;;;;;;13.68;4.43;;;;;;;;;;4973459;28;20095;-38
2023/10/02 09:27:55;;;;;;;13.43;4.03;;;;;;;;;;5006316;28;20048;-38
2023/10/02 09:30:34;;;;;;;20.67;4.40;;;;;;;;;;4999207;28;20056;-38
2023/10/02 09:33:10;;;;;;;18.45;4.60;;;;;;;;;;4996300;28;20637;-38
2023/10/02 09:36:00;;;;;;;17.20;4.35;;;;;;;;;;5007479;28;20036;-38
2023/10/02 09:38:49;;;;;;;16.10;4.97;;;;;;;;;;5005404;28;20037;-39
2023/10/02 09:41:20;;;;;;;18.03;4.73;;;;;;;;;;4991108;28;20136;-38
2023/10/02 09:43:49;;;;;;;15.48;4.70;;;;;;;;;;4990194;28;20075;-38
2023/10/02 09:46:21;;;;;;;15.95;5.35;;;;;;;;;;5003423;28;20048;-39
2023/10/02 09:49:03;;;;;;;17.25;4.40;;;;;;;;;;4999643;28;20044;-38
2023/10/02 09:51:38;;;;;;;17.42;5.68;;;;;;;;;;4992196;28;20045;-39
2023/10/02 09:54:13;;;;;;;15.43;4.90;;;;;;;;;;5007433;28;20405;-38
2023/10/02 09:56:54;;;;;;;15.15;4.95;;;;;;;;;;4998876;28;20045;-39
2023/10/02 09:59:23;;;;;;;15.55;4.80;;;;;;;;;;5008185;28;20049;-38
2023/10/02 10:05:46;;;;;;;20.45;6.15;;;;;;;;;;4941253;28;20493;-38
2023/10/02 10:08:18;;;;;;;19.80;6.50;;;;;;;;;;5013635;28;20060;-38
2023/10/02 10:10:48;;;;;;;23.40;6.55;;;;;;;;;;4652866;28;10000185;-38
2023/10/02 10:13:28;;;;;;;19.88;7.65;;;;;;;;;;4995623;28;20049;-38
2023/10/02 10:16:18;;;;;;;25.23;7.85;;;;;;;;;;4992982;28;20041;-38
2023/10/02 10:21:56;;;;;;;22.10;6.97;;;;;;;;;;4995025;28;20048;-38
2023/10/02 10:24:32;;;;;;;20.33;5.95;;;;;;;;;;5016416;28;20040;-38
2023/10/02 10:27:01;;;;;;;20.13;6.93;;;;;;;;;;5009147;28;20103;-38
2023/10/02 10:29:37;;;;;;;20.13;6.72;;;;;;;;;;5021508;28;20037;-39
2023/10/02 10:32:23;;;;;;;22.08;7.30;;;;;;;;;;4988254;28;20131;-38
2023/10/02 10:35:14;;;;;;;22.40;7.33;;;;;;;;;;5019023;28;20578;-38
2023/10/02 10:37:46;;;;;;;22.48;7.40;;;;;;;;;;5031573;28;20581;-38
2023/10/02 10:40:43;;;;;;;21.92;6.97;;;;;;;;;;5005118;28;20151;-38
2023/10/02 10:43:15;;;;;;;23.92;7.47;;;;;;;;;;5019318;28;20044;-38
2023/10/02 10:45:44;;;;;;;17.17;6.93;;;;;;;;;;5023442;28;20238;-38
2023/10/02 10:48:22;;;;;;;18.57;6.63;;;;;;;;;;4987555;28;20706;-38
2023/10/02 10:50:59;;;;;;;20.17;6.85;;;;;;;;;;5016413;28;20098;-38
2023/10/02 10:53:28;;;;;;;21.05;6.28;;;;;;;;;;5011637;28;20127;-38
2023/10/02 10:56:03;;;;;;;20.08;7.35;;;;;;;;;;5011640;28;20041;-38
2023/10/02 10:58:34;;;;;;;16.15;6.13;;;;;;;;;;5017045;28;20045;-38
2023/10/02 11:01:05;;;;;;;20.23;6.70;;;;;;;;;;5008847;28;20372;-39
2023/10/02 11:03:34;;;;;;;17.63;6.18;;;;;;;;;;5020225;28;20036;-37
2023/10/02 11:06:03;;;;;;;14.50;5.50;;;;;;;;;;4997866;28;20294;-37
2023/10/02 11:08:33;;;;;;;16.40;5.72;;;;;;;;;;5024763;28;20045;-37
2023/10/02 11:14:20;;;;;;;16.43;6.13;;;;;;;;;;5016336;28;20060;-37
2023/10/02 11:16:55;;;;;;;17.90;5.95;;;;;;;;;;5022220;28;20139;-37
2023/10/02 11:19:34;;;;;;;16.27;6.32;;;;;;;;;;5020760;28;20033;-37
2023/10/02 11:22:03;;;;;;;16.50;5.95;;;;;;;;;;5020434;28;20457;-39
2023/10/02 11:24:33;;;;;;;15.02;5.63;;;;;;;;;;4679111;28;10000068;-37
2023/10/02 11:27:04;;;;;;;16.97;6.50;;;;;;;;;;5010771;28;20446;-37
2023/10/02 11:29:40;;;;;;;18.52;6.65;;;;;;;;;;5023731;28;20509;-37
2023/10/02 11:32:21;;;;;;;16.58;5.28;;;;;;;;;;5015647;28;20068;-37
2023/10/02 11:34:50;;;;;;;20.88;7.72;;;;;;;;;;5020994;28;20045;-37
2023/10/02 11:37:18;;;;;;;19.17;6.82;;;;;;;;;;5017496;28;20723;-37
2023/10/02 11:39:50;;;;;;;18.57;5.97;;;;;;;;;;5018999;28;20056;-38
2023/10/02 11:42:19;;;;;;;19.80;6.60;;;;;;;;;;5011254;28;20633;-37
2023/10/02 11:44:47;;;;;;;20.15;6.88;;;;;;;;;;5020779;28;20087;-37
2023/10/02 11:47:16;;;;;;;18.63;6.70;;;;;;;;;;5014014;28;20923;-37
2023/10/02 11:49:44;;;;;;;19.10;6.22;;;;;;;;;;5014579;28;20771;-37
2023/10/02 11:52:12;;;;;;;17.13;5.87;;;;;;;;;;5026338;28;20041;-37
2023/10/02 11:54:40;;;;;;;19.20;5.95;;;;;;;;;;4666525;28;9999958;-37
2023/10/02 11:57:12;;;;;;;18.47;6.03;;;;;;;;;;5018174;28;20044;-38
2023/10/02 11:59:42;;;;;;;19.40;6.05;;;;;;;;;;5019406;28;20037;-37
2023/10/02 12:02:12;;;;;;;13.80;5.28;;;;;;;;;;5006355;28;20509;-37
2023/10/02 12:04:41;;;;;;;16.33;5.78;;;;;;;;;;4996366;28;20037;-37
2023/10/02 12:07:09;;;;;;;19.15;6.57;;;;;;;;;;4994197;28;20857;-38
2023/10/02 12:09:41;;;;;;;19.87;6.60;;;;;;;;;;5001660;28;20043;-37
2023/10/02 12:12:11;;;;;;;15.68;6.18;;;;;;;;;;4995190;28;20935;-37
2023/10/02 12:14:40;;;;;;;15.30;5.97;;;;;;;;;;4990506;28;20079;-37
2023/10/02 12:17:14;;;;;;;15.95;7.05;;;;;;;;;;4997811;28;20059;-41
2023/10/02 12:19:44;;;;;;;16.55;6.22;;;;;;;;;;5001570;28;20039;-37
2023/10/02 12:22:12;;;;;;;15.13;5.93;;;;;;;;;;4997543;28;20057;-37
2023/10/02 12:24:40;;;;;;;17.08;6.18;;;;;;;;;;5001725;28;20049;-37
2023/10/02 12:27:10;;;;;;;12.70;5.13;;;;;;;;;;4998971;28;20048;-37
2023/10/02 12:29:39;;;;;;;16.58;6.07;;;;;;;;;;5004612;28;20064;-37
2023/10/02 12:32:09;;;;;;;15.75;5.28;;;;;;;;;;5002333;28;21410;-37
2023/10/02 12:34:39;;;;;;;14.03;5.77;;;;;;;;;;4963372;28;20067;-39
2023/10/02 12:37:09;;;;;;;15.43;5.68;;;;;;;;;;4995605;28;20052;-37
2023/10/02 12:39:37;;;;;;;18.48;6.43;;;;;;;;;;4998026;28;20041;-37
2023/10/02 12:42:05;;;;;;;19.08;6.80;;;;;;;;;;4994673;28;20049;-37
2023/10/02 12:44:36;;;;;;;17.73;6.82;;;;;;;;;;5011682;28;20531;-37
2023/10/02 12:47:04;;;;;;;17.73;6.60;;;;;;;;;;4998772;28;20037;-38
2023/10/02 12:49:34;;;;;;;20.70;6.88;;;;;;;;;;5004284;28;20048;-37
2023/10/02 12:52:02;;;;;;;17.13;6.20;;;;;;;;;;5002115;28;20446;-37
2023/10/02 12:54:31;;;;;;;18.77;6.32;;;;;;;;;;4996972;28;20041;-38
2023/10/02 12:57:00;;;;;;;18.95;6.80;;;;;;;;;;5002917;28;20487;-37
2023/10/02 12:59:27;;;;;;;16.97;6.47;;;;;;;;;;5002072;28;20155;-39
2023/10/02 13:01:55;;;;;;;20.02;7.32;;;;;;;;;;5007905;28;20115;-38
2023/10/02 13:04:25;;;;;;;18.08;6.30;;;;;;;;;;4997842;28;20096;-37
2023/10/02 13:06:53;;;;;;;18.08;6.25;;;;;;;;;;4998277;28;20049;-38
2023/10/02 13:09:21;;;;;;;19.13;6.45;;;;;;;;;;5004513;28;20048;-40
2023/10/02 13:11:51;;;;;;;17.93;6.20;;;;;;;;;;5004773;28;20139;-38
2023/10/02 13:14:18;;;;;;;17.95;7.03;;;;;;;;;;5026198;28;21232;-37
2023/10/02 13:16:48;;;;;;;17.70;6.90;;;;;;;;;;5004039;28;21102;-38
2023/10/02 13:19:17;;;;;;;21.33;7.45;;;;;;;;;;4966065;28;20421;-37
2023/10/02 13:21:45;;;;;;;20.13;6.80;;;;;;;;;;5010767;28;20660;-37
2023/10/02 13:24:15;;;;;;;20.60;7.57;;;;;;;;;;4993468;28;20127;-38
2023/10/02 13:26:44;;;;;;;18.65;7.47;;;;;;;;;;5009507;28;20499;-38
2023/10/02 13:29:13;;;;;;;18.27;7.45;;;;;;;;;;4978351;28;20073;-38
2023/10/02 13:31:41;;;;;;;20.08;7.20;;;;;;;;;;4990980;28;20792;-38
2023/10/02 13:34:10;;;;;;;19.17;7.80;;;;;;;;;;4993208;28;20068;-37
2023/10/02 13:36:39;;;;;;;15.80;7.20;;;;;;;;;;4989230;28;20043;-37
2023/10/02 13:39:12;;;;;;;20.20;7.72;;;;;;;;;;5011020;28;20047;-38
2023/10/02 13:41:40;;;;;;;17.83;7.63;;;;;;;;;;4993843;28;20044;-42
2023/10/02 13:44:09;;;;;;;16.15;7.60;;;;;;;;;;4992483;28;20056;-38
2023/10/02 13:46:39;;;;;;;21.10;7.82;;;;;;;;;;4990897;28;20079;-38
2023/10/02 13:49:08;;;;;;;18.20;8.60;;;;;;;;;;5012156;28;20060;-38
2023/10/02 13:51:37;;;;;;;12.57;5.20;;;;;;;;;;4982956;28;20041;-38
2023/10/02 13:54:06;;;;;;;10.18;4.30;;;;;;;;;;4952910;28;20534;-38
2023/10/02 13:56:35;;;;;;;10.30;3.43;;;;;;;;;;4592403;28;10000199;-38
2023/10/02 13:59:03;;;;;;;8.32;3.40;;;;;;;;;;4972363;28;20041;-38
2023/10/02 14:01:32;;;;;;;8.27;3.10;;;;;;;;;;4999857;28;20057;-38
2023/10/02 14:04:06;;;;;;;7.07;3.80;;;;;;;;;;4995876;28;20136;-38
2023/10/02 14:06:34;;;;;;;8.00;3.87;;;;;;;;;;5004319;28;20037;-38
2023/10/02 14:09:04;;;;;;;7.25;3.60;;;;;;;;;;5000696;28;20122;-38
2023/10/02 14:11:33;;;;;;;8.40;4.32;;;;;;;;;;4999909;28;20127;-37
2023/10/02 14:14:01;;;;;;;7.13;3.78;;;;;;;;;;4991035;28;20041;-41
2023/10/02 14:16:29;;;;;;;7.68;4.18;;;;;;;;;;4983383;28;20044;-38
2023/10/02 14:18:57;;;;;;;9.13;4.90;;;;;;;;;;4990646;28;20803;-38
2023/10/02 14:21:30;;;;;;;9.63;5.28;;;;;;;;;;5009510;28;20063;-38
2023/10/02 14:23:59;;;;;;;8.23;5.00;;;;;;;;;;4987679;28;20075;-37
2023/10/02 14:26:27;;;;;;;9.65;5.47;;;;;;;;;;4942755;28;20049;-37
2023/10/02 14:28:55;;;;;;;8.07;4.50;;;;;;;;;;4978986;28;20087;-37
2023/10/02 14:31:23;;;;;;;8.90;4.80;;;;;;;;;;4979460;28;20125;-37
2023/10/02 14:33:51;;;;;;;9.25;4.65;;;;;;;;;;4986771;28;20070;-38
2023/10/02 14:36:19;;;;;;;7.35;4.03;;;;;;;;;;4992218;28;20124;-38
2023/10/02 14:38:48;;;;;;;7.43;3.85;;;;;;;;;;4997046;28;20044;-37
2023/10/02 14:41:17;;;;;;;7.93;4.30;;;;;;;;;;5004420;28;20052;-37
2023/10/02 14:43:46;;;;;;;7.40;3.60;;;;;;;;;;4983651;28;20060;-37
2023/10/02 14:46:15;;;;;;;7.45;3.10;;;;;;;;;;4980850;28;20415;-38
2023/10/02 14:48:43;;;;;;;5.85;2.55;;;;;;;;;;4977546;28;20037;-37
2023/10/02 14:51:13;;;;;;;5.50;2.50;;;;;;;;;;4985792;28;20084;-37
2023/10/02 14:53:42;;;;;;;5.60;2.38;;;;;;;;;;4948076;28;20056;-37
2023/10/02 14:56:12;;;;;;;5.60;2.30;;;;;;;;;;5006670;28;20048;-37
2023/10/02 14:58:46;;;;;;;5.43;2.17;;;;;;;;;;5001743;28;20107;-37
2023/10/02 15:01:16;;;;;;;6.63;2.88;;;;;;;;;;4995052;28;20156;-37
2023/10/02 15:03:47;;;;;;;5.15;2.20;;;;;;;;;;4981164;28;20053;-37
2023/10/02 15:06:15;;;;;;;6.65;2.75;;;;;;;;;;4988203;28;20471;-37
2023/10/02 15:08:43;;;;;;;6.63;2.63;;;;;;;;;;4970317;28;20817;-37
2023/10/02 15:11:13;;;;;;;6.70;2.65;;;;;;;;;;4966567;28;20780;-37
2023/10/02 15:13:43;;;;;;;6.18;2.88;;;;;;;;;;4988486;28;20051;-37
2023/10/02 15:16:14;;;;;;;6.43;2.97;;;;;;;;;;5005809;28;20075;-37
2023/10/02 15:18:45;;;;;;;7.75;2.97;;;;;;;;;;4998759;28;20056;-37
2023/10/02 15:21:24;;;;;;;6.33;2.60;;;;;;;;;;4965220;28;20684;-37
2023/10/02 15:23:51;;;;;;;7.35;3.50;;;;;;;;;;5000518;28;20498;-38
2023/10/02 15:26:21;;;;;;;7.32;3.20;;;;;;;;;;5001486;28;20406;-38
2023/10/02 15:28:50;;;;;;;6.93;3.13;;;;;;;;;;4997491;28;20060;-37
2023/10/02 15:31:18;;;;;;;7.65;3.03;;;;;;;;;;4995419;28;20045;-37